sensor_id;sensor_type;location;lat;lon;timestamp;P1;durP1;ratioP1;P2;durP2;ratioP2
3791;SDS011;1911;53.768;11.474;2023-05-13T00:01:41;8.17;;;6.03;;
3791;SDS011;1911;53.768;11.474;2023-05-13T00:04:07;7.10;;;5.00;;
3791;SDS011;1911;53.768;11.474;2023-05-13T00:06:33;7.50;;;5.40;;
3791;SDS011;1911;53.768;11.474;2023-05-13T00:08:59;6.47;;;4.83;;
3791;SDS011;1911;53.768;11.474;2023-05-13T00:11:25;10.80;;;5.20;;
3791;SDS011;1911;53.768;11.474;2023-05-13T00:13:51;6.67;;;4.63;;
3791;SDS011;1911;53.768;11.474;2023-05-13T00:16:17;7.87;;;5.73;;
3791;SDS011;1911;53.768;11.474;2023-05-13T00:18:43;8.67;;;5.00;;
3791;SDS011;1911;53.768;11.474;2023-05-13T00:21:08;8.00;;;4.50;;
3791;SDS011;1911;53.768;11.474;2023-05-13T00:23:34;6.90;;;4.80;;
3791;SDS011;1911;53.768;11.474;2023-05-13T00:26:00;5.00;;;4.30;;
3791;SDS011;1911;53.768;11.474;2023-05-13T00:28:25;5.60;;;5.00;;
3791;SDS011;1911;53.768;11.474;2023-05-13T00:30:51;7.20;;;5.03;;
3791;SDS011;1911;53.768;11.474;2023-05-13T00:33:17;7.57;;;5.50;;
3791;SDS011;1911;53.768;11.474;2023-05-13T00:35:42;13.40;;;5.53;;
3791;SDS011;1911;53.768;11.474;2023-05-13T00:38:08;8.83;;;6.80;;
3791;SDS011;1911;53.768;11.474;2023-05-13T00:40:37;6.90;;;5.27;;
3791;SDS011;1911;53.768;11.474;2023-05-13T00:43:03;7.33;;;5.87;;
3791;SDS011;1911;53.768;11.474;2023-05-13T00:45:30;7.57;;;6.07;;
3791;SDS011;1911;53.768;11.474;2023-05-13T00:47:56;7.27;;;5.80;;
3791;SDS011;1911;53.768;11.474;2023-05-13T00:50:23;6.93;;;5.43;;
3791;SDS011;1911;53.768;11.474;2023-05-13T00:52:49;6.90;;;5.40;;
3791;SDS011;1911;53.768;11.474;2023-05-13T00:55:15;8.97;;;6.40;;
3791;SDS011;1911;53.768;11.474;2023-05-13T00:57:41;10.63;;;6.13;;
3791;SDS011;1911;53.768;11.474;2023-05-13T01:00:09;8.50;;;6.60;;
3791;SDS011;1911;53.768;11.474;2023-05-13T01:05:09;8.57;;;6.27;;
3791;SDS011;1911;53.768;11.474;2023-05-13T01:13:13;10.83;;;7.20;;
3791;SDS011;1911;53.768;11.474;2023-05-13T01:15:48;7.87;;;6.37;;
3791;SDS011;1911;53.768;11.474;2023-05-13T01:18:43;8.20;;;6.93;;
3791;SDS011;1911;53.768;11.474;2023-05-13T01:21:11;9.70;;;7.77;;
3791;SDS011;1911;53.768;11.474;2023-05-13T01:23:37;11.13;;;6.93;;
3791;SDS011;1911;53.768;11.474;2023-05-13T01:26:03;9.37;;;7.07;;
3791;SDS011;1911;53.768;11.474;2023-05-13T01:28:28;9.60;;;6.97;;
3791;SDS011;1911;53.768;11.474;2023-05-13T01:30:54;11.03;;;6.70;;
3791;SDS011;1911;53.768;11.474;2023-05-13T01:33:21;14.20;;;7.00;;
3791;SDS011;1911;53.768;11.474;2023-05-13T01:35:48;7.70;;;6.37;;
3791;SDS011;1911;53.768;11.474;2023-05-13T01:38:19;10.30;;;7.80;;
3791;SDS011;1911;53.768;11.474;2023-05-13T01:40:46;7.93;;;7.00;;
3791;SDS011;1911;53.768;11.474;2023-05-13T01:43:12;11.23;;;7.50;;
3791;SDS011;1911;53.768;11.474;2023-05-13T01:45:38;9.80;;;7.60;;
3791;SDS011;1911;53.768;11.474;2023-05-13T01:48:03;9.13;;;6.30;;
3791;SDS011;1911;53.768;11.474;2023-05-13T01:50:30;8.53;;;6.90;;
3791;SDS011;1911;53.768;11.474;2023-05-13T01:52:55;11.53;;;6.50;;
3791;SDS011;1911;53.768;11.474;2023-05-13T01:55:21;8.90;;;6.60;;
3791;SDS011;1911;53.768;11.474;2023-05-13T01:57:47;8.20;;;6.53;;
3791;SDS011;1911;53.768;11.474;2023-05-13T02:00:12;11.30;;;7.93;;
3791;SDS011;1911;53.768;11.474;2023-05-13T02:02:38;8.23;;;6.43;;
3791;SDS011;1911;53.768;11.474;2023-05-13T02:05:04;12.03;;;7.50;;
3791;SDS011;1911;53.768;11.474;2023-05-13T02:07:30;8.30;;;7.17;;
3791;SDS011;1911;53.768;11.474;2023-05-13T02:09:55;8.93;;;7.30;;
3791;SDS011;1911;53.768;11.474;2023-05-13T02:12:24;10.20;;;7.20;;
3791;SDS011;1911;53.768;11.474;2023-05-13T02:14:53;10.67;;;6.93;;
3791;SDS011;1911;53.768;11.474;2023-05-13T02:17:19;9.40;;;7.83;;
3791;SDS011;1911;53.768;11.474;2023-05-13T02:19:46;8.70;;;6.77;;
3791;SDS011;1911;53.768;11.474;2023-05-13T02:22:12;7.13;;;6.43;;
3791;SDS011;1911;53.768;11.474;2023-05-13T02:24:37;15.97;;;7.67;;
3791;SDS011;1911;53.768;11.474;2023-05-13T02:27:07;8.47;;;7.67;;
3791;SDS011;1911;53.768;11.474;2023-05-13T02:29:33;8.97;;;7.00;;
3791;SDS011;1911;53.768;11.474;2023-05-13T02:31:58;8.87;;;7.10;;
3791;SDS011;1911;53.768;11.474;2023-05-13T02:34:24;10.37;;;7.30;;
3791;SDS011;1911;53.768;11.474;2023-05-13T02:36:50;9.13;;;6.97;;
3791;SDS011;1911;53.768;11.474;2023-05-13T02:39:16;7.43;;;6.70;;
3791;SDS011;1911;53.768;11.474;2023-05-13T02:41:42;8.57;;;7.20;;
3791;SDS011;1911;53.768;11.474;2023-05-13T02:44:08;9.77;;;5.90;;
3791;SDS011;1911;53.768;11.474;2023-05-13T02:46:34;6.97;;;6.27;;
3791;SDS011;1911;53.768;11.474;2023-05-13T02:49:00;9.93;;;6.97;;
3791;SDS011;1911;53.768;11.474;2023-05-13T02:51:26;9.30;;;6.57;;
3791;SDS011;1911;53.768;11.474;2023-05-13T02:53:51;8.03;;;7.00;;
3791;SDS011;1911;53.768;11.474;2023-05-13T02:56:17;12.30;;;6.57;;
3791;SDS011;1911;53.768;11.474;2023-05-13T02:58:43;8.97;;;6.20;;
3791;SDS011;1911;53.768;11.474;2023-05-13T03:01:08;13.03;;;6.63;;
3791;SDS011;1911;53.768;11.474;2023-05-13T03:03:34;9.20;;;6.43;;
3791;SDS011;1911;53.768;11.474;2023-05-13T03:06:00;12.03;;;7.20;;
3791;SDS011;1911;53.768;11.474;2023-05-13T03:08:26;11.93;;;6.83;;
3791;SDS011;1911;53.768;11.474;2023-05-13T03:10:51;9.07;;;6.00;;
3791;SDS011;1911;53.768;11.474;2023-05-13T03:13:17;13.03;;;7.23;;
3791;SDS011;1911;53.768;11.474;2023-05-13T03:15:42;14.60;;;7.40;;
3791;SDS011;1911;53.768;11.474;2023-05-13T03:18:08;13.33;;;7.83;;
3791;SDS011;1911;53.768;11.474;2023-05-13T03:20:34;7.93;;;5.53;;
3791;SDS011;1911;53.768;11.474;2023-05-13T03:23:00;6.77;;;6.07;;
3791;SDS011;1911;53.768;11.474;2023-05-13T03:25:25;10.20;;;5.67;;
3791;SDS011;1911;53.768;11.474;2023-05-13T03:27:51;8.53;;;6.50;;
3791;SDS011;1911;53.768;11.474;2023-05-13T03:30:18;6.97;;;5.77;;
3791;SDS011;1911;53.768;11.474;2023-05-13T03:32:43;9.17;;;6.10;;
3791;SDS011;1911;53.768;11.474;2023-05-13T03:35:09;11.23;;;6.23;;
3791;SDS011;1911;53.768;11.474;2023-05-13T03:37:34;7.33;;;6.13;;
3791;SDS011;1911;53.768;11.474;2023-05-13T03:40:00;8.93;;;6.33;;
3791;SDS011;1911;53.768;11.474;2023-05-13T03:42:26;8.07;;;5.37;;
3791;SDS011;1911;53.768;11.474;2023-05-13T03:44:51;10.73;;;6.40;;
3791;SDS011;1911;53.768;11.474;2023-05-13T03:47:17;8.07;;;6.20;;
3791;SDS011;1911;53.768;11.474;2023-05-13T03:49:42;9.00;;;6.10;;
3791;SDS011;1911;53.768;11.474;2023-05-13T03:52:08;8.97;;;6.30;;
3791;SDS011;1911;53.768;11.474;2023-05-13T03:54:34;10.10;;;6.23;;
3791;SDS011;1911;53.768;11.474;2023-05-13T03:56:59;6.73;;;5.20;;
3791;SDS011;1911;53.768;11.474;2023-05-13T03:59:25;10.87;;;6.00;;
3791;SDS011;1911;53.768;11.474;2023-05-13T04:01:50;8.30;;;5.90;;
3791;SDS011;1911;53.768;11.474;2023-05-13T04:04:16;9.73;;;5.03;;
3791;SDS011;1911;53.768;11.474;2023-05-13T04:06:42;11.03;;;5.03;;
3791;SDS011;1911;53.768;11.474;2023-05-13T04:09:07;9.23;;;5.83;;
3791;SDS011;1911;53.768;11.474;2023-05-13T04:11:33;8.23;;;5.13;;
3791;SDS011;1911;53.768;11.474;2023-05-13T04:13:58;7.17;;;5.80;;
3791;SDS011;1911;53.768;11.474;2023-05-13T04:16:24;9.20;;;5.40;;
3791;SDS011;1911;53.768;11.474;2023-05-13T04:18:50;12.03;;;5.40;;
3791;SDS011;1911;53.768;11.474;2023-05-13T04:21:15;5.40;;;4.73;;
3791;SDS011;1911;53.768;11.474;2023-05-13T04:23:41;8.10;;;5.97;;
3791;SDS011;1911;53.768;11.474;2023-05-13T04:26:06;15.27;;;5.27;;
3791;SDS011;1911;53.768;11.474;2023-05-13T04:28:32;7.30;;;5.73;;
3791;SDS011;1911;53.768;11.474;2023-05-13T04:30:58;7.90;;;5.47;;
3791;SDS011;1911;53.768;11.474;2023-05-13T04:33:24;9.53;;;5.60;;
3791;SDS011;1911;53.768;11.474;2023-05-13T04:35:50;6.63;;;4.90;;
3791;SDS011;1911;53.768;11.474;2023-05-13T04:38:16;5.87;;;5.10;;
3791;SDS011;1911;53.768;11.474;2023-05-13T04:40:42;6.87;;;5.27;;
3791;SDS011;1911;53.768;11.474;2023-05-13T04:43:09;9.63;;;6.40;;
3791;SDS011;1911;53.768;11.474;2023-05-13T04:45:35;8.40;;;6.20;;
3791;SDS011;1911;53.768;11.474;2023-05-13T04:48:02;7.00;;;4.97;;
3791;SDS011;1911;53.768;11.474;2023-05-13T04:50:27;7.80;;;5.90;;
3791;SDS011;1911;53.768;11.474;2023-05-13T04:52:53;11.93;;;5.70;;
3791;SDS011;1911;53.768;11.474;2023-05-13T04:55:20;6.43;;;5.13;;
3791;SDS011;1911;53.768;11.474;2023-05-13T04:57:46;7.07;;;5.40;;
3791;SDS011;1911;53.768;11.474;2023-05-13T05:00:11;12.23;;;5.53;;
3791;SDS011;1911;53.768;11.474;2023-05-13T05:02:37;8.43;;;5.63;;
3791;SDS011;1911;53.768;11.474;2023-05-13T05:05:03;7.17;;;5.40;;
3791;SDS011;1911;53.768;11.474;2023-05-13T05:07:29;5.83;;;4.93;;
3791;SDS011;1911;53.768;11.474;2023-05-13T05:09:55;8.13;;;4.73;;
3791;SDS011;1911;53.768;11.474;2023-05-13T05:12:21;9.00;;;5.90;;
3791;SDS011;1911;53.768;11.474;2023-05-13T05:14:46;5.97;;;4.00;;
3791;SDS011;1911;53.768;11.474;2023-05-13T05:17:12;8.57;;;5.00;;
3791;SDS011;1911;53.768;11.474;2023-05-13T05:19:37;7.00;;;5.00;;
3791;SDS011;1911;53.768;11.474;2023-05-13T05:22:03;6.43;;;4.33;;
3791;SDS011;1911;53.768;11.474;2023-05-13T05:24:29;4.93;;;4.03;;
3791;SDS011;1911;53.768;11.474;2023-05-13T05:26:55;6.00;;;4.27;;
3791;SDS011;1911;53.768;11.474;2023-05-13T05:29:21;6.63;;;4.27;;
3791;SDS011;1911;53.768;11.474;2023-05-13T05:31:47;6.60;;;4.63;;
3791;SDS011;1911;53.768;11.474;2023-05-13T05:34:12;6.23;;;4.90;;
3791;SDS011;1911;53.768;11.474;2023-05-13T05:36:38;8.10;;;3.93;;
3791;SDS011;1911;53.768;11.474;2023-05-13T05:39:04;8.97;;;6.40;;
3791;SDS011;1911;53.768;11.474;2023-05-13T05:41:29;5.90;;;3.97;;
3791;SDS011;1911;53.768;11.474;2023-05-13T05:43:56;5.70;;;4.97;;
3791;SDS011;1911;53.768;11.474;2023-05-13T05:46:21;4.77;;;3.83;;
3791;SDS011;1911;53.768;11.474;2023-05-13T05:48:47;8.30;;;4.13;;
3791;SDS011;1911;53.768;11.474;2023-05-13T05:51:13;5.10;;;3.50;;
3791;SDS011;1911;53.768;11.474;2023-05-13T05:53:39;5.93;;;4.37;;
3791;SDS011;1911;53.768;11.474;2023-05-13T05:56:07;6.30;;;3.63;;
3791;SDS011;1911;53.768;11.474;2023-05-13T05:58:33;5.40;;;4.20;;
3791;SDS011;1911;53.768;11.474;2023-05-13T06:00:59;7.00;;;4.07;;
3791;SDS011;1911;53.768;11.474;2023-05-13T06:03:24;9.73;;;3.93;;
3791;SDS011;1911;53.768;11.474;2023-05-13T06:05:50;5.20;;;4.07;;
3791;SDS011;1911;53.768;11.474;2023-05-13T06:08:16;4.73;;;3.93;;
3791;SDS011;1911;53.768;11.474;2023-05-13T06:10:42;4.33;;;3.60;;
3791;SDS011;1911;53.768;11.474;2023-05-13T06:13:08;6.30;;;4.10;;
3791;SDS011;1911;53.768;11.474;2023-05-13T06:15:34;5.60;;;3.87;;
3791;SDS011;1911;53.768;11.474;2023-05-13T06:18:02;4.87;;;3.47;;
3791;SDS011;1911;53.768;11.474;2023-05-13T06:20:29;5.60;;;4.03;;
3791;SDS011;1911;53.768;11.474;2023-05-13T06:22:55;6.50;;;4.37;;
3791;SDS011;1911;53.768;11.474;2023-05-13T06:25:21;6.67;;;4.30;;
3791;SDS011;1911;53.768;11.474;2023-05-13T06:27:46;3.70;;;3.20;;
3791;SDS011;1911;53.768;11.474;2023-05-13T06:30:12;6.23;;;4.00;;
3791;SDS011;1911;53.768;11.474;2023-05-13T06:32:37;10.97;;;4.00;;
3791;SDS011;1911;53.768;11.474;2023-05-13T06:35:03;4.40;;;3.40;;
3791;SDS011;1911;53.768;11.474;2023-05-13T06:37:29;6.87;;;3.80;;
3791;SDS011;1911;53.768;11.474;2023-05-13T06:39:54;6.30;;;4.27;;
3791;SDS011;1911;53.768;11.474;2023-05-13T06:42:20;4.47;;;3.97;;
3791;SDS011;1911;53.768;11.474;2023-05-13T06:44:45;5.40;;;4.00;;
3791;SDS011;1911;53.768;11.474;2023-05-13T06:47:11;6.60;;;5.63;;
3791;SDS011;1911;53.768;11.474;2023-05-13T06:49:39;6.80;;;4.07;;
3791;SDS011;1911;53.768;11.474;2023-05-13T06:52:05;6.50;;;4.10;;
3791;SDS011;1911;53.768;11.474;2023-05-13T06:54:32;12.43;;;4.97;;
3791;SDS011;1911;53.768;11.474;2023-05-13T06:56:58;8.73;;;3.83;;
3791;SDS011;1911;53.768;11.474;2023-05-13T06:59:23;4.33;;;3.93;;
3791;SDS011;1911;53.768;11.474;2023-05-13T07:01:49;7.67;;;4.00;;
3791;SDS011;1911;53.768;11.474;2023-05-13T07:04:14;5.47;;;4.37;;
3791;SDS011;1911;53.768;11.474;2023-05-13T07:06:40;5.43;;;4.13;;
3791;SDS011;1911;53.768;11.474;2023-05-13T07:09:06;6.53;;;4.30;;
3791;SDS011;1911;53.768;11.474;2023-05-13T07:11:33;4.43;;;3.77;;
3791;SDS011;1911;53.768;11.474;2023-05-13T07:14:03;5.00;;;3.63;;
3791;SDS011;1911;53.768;11.474;2023-05-13T07:16:28;6.90;;;4.37;;
3791;SDS011;1911;53.768;11.474;2023-05-13T07:18:54;4.73;;;4.30;;
3791;SDS011;1911;53.768;11.474;2023-05-13T07:21:20;5.70;;;4.33;;
3791;SDS011;1911;53.768;11.474;2023-05-13T07:23:45;5.30;;;4.00;;
3791;SDS011;1911;53.768;11.474;2023-05-13T07:26:11;4.73;;;4.03;;
3791;SDS011;1911;53.768;11.474;2023-05-13T07:28:37;4.23;;;3.80;;
3791;SDS011;1911;53.768;11.474;2023-05-13T07:31:05;8.63;;;4.47;;
3791;SDS011;1911;53.768;11.474;2023-05-13T07:33:30;8.67;;;3.90;;
3791;SDS011;1911;53.768;11.474;2023-05-13T07:35:56;6.70;;;3.80;;
3791;SDS011;1911;53.768;11.474;2023-05-13T07:38:22;7.83;;;4.00;;
3791;SDS011;1911;53.768;11.474;2023-05-13T07:40:47;6.80;;;4.33;;
3791;SDS011;1911;53.768;11.474;2023-05-13T07:43:13;7.03;;;3.97;;
3791;SDS011;1911;53.768;11.474;2023-05-13T07:45:41;7.80;;;4.17;;
3791;SDS011;1911;53.768;11.474;2023-05-13T07:48:07;4.00;;;3.60;;
3791;SDS011;1911;53.768;11.474;2023-05-13T07:50:33;4.80;;;3.40;;
3791;SDS011;1911;53.768;11.474;2023-05-13T07:53:00;5.03;;;4.50;;
3791;SDS011;1911;53.768;11.474;2023-05-13T07:55:26;6.73;;;5.07;;
3791;SDS011;1911;53.768;11.474;2023-05-13T07:57:53;5.50;;;3.77;;
3791;SDS011;1911;53.768;11.474;2023-05-13T08:00:19;5.10;;;4.33;;
3791;SDS011;1911;53.768;11.474;2023-05-13T08:02:44;7.30;;;3.70;;
3791;SDS011;1911;53.768;11.474;2023-05-13T08:05:10;8.57;;;4.07;;
3791;SDS011;1911;53.768;11.474;2023-05-13T08:07:36;7.93;;;4.20;;
3791;SDS011;1911;53.768;11.474;2023-05-13T08:10:02;5.10;;;3.50;;
3791;SDS011;1911;53.768;11.474;2023-05-13T08:12:28;6.67;;;3.53;;
3791;SDS011;1911;53.768;11.474;2023-05-13T08:14:53;6.60;;;4.10;;
3791;SDS011;1911;53.768;11.474;2023-05-13T08:17:19;9.23;;;4.23;;
3791;SDS011;1911;53.768;11.474;2023-05-13T08:19:44;5.93;;;3.87;;
3791;SDS011;1911;53.768;11.474;2023-05-13T08:22:10;6.80;;;3.60;;
3791;SDS011;1911;53.768;11.474;2023-05-13T08:24:36;10.20;;;4.60;;
3791;SDS011;1911;53.768;11.474;2023-05-13T08:27:04;3.77;;;3.37;;
3791;SDS011;1911;53.768;11.474;2023-05-13T08:29:29;4.43;;;3.57;;
3791;SDS011;1911;53.768;11.474;2023-05-13T08:31:55;4.13;;;3.27;;
3791;SDS011;1911;53.768;11.474;2023-05-13T08:34:30;6.07;;;4.17;;
3791;SDS011;1911;53.768;11.474;2023-05-13T08:36:55;4.53;;;4.13;;
3791;SDS011;1911;53.768;11.474;2023-05-13T08:39:21;4.90;;;3.43;;
3791;SDS011;1911;53.768;11.474;2023-05-13T08:41:46;6.77;;;3.90;;
3791;SDS011;1911;53.768;11.474;2023-05-13T08:44:15;4.60;;;3.67;;
3791;SDS011;1911;53.768;11.474;2023-05-13T08:47:00;6.50;;;4.20;;
3791;SDS011;1911;53.768;11.474;2023-05-13T08:49:29;7.73;;;3.50;;
3791;SDS011;1911;53.768;11.474;2023-05-13T08:51:55;5.30;;;3.63;;
3791;SDS011;1911;53.768;11.474;2023-05-13T08:54:21;5.70;;;3.63;;
3791;SDS011;1911;53.768;11.474;2023-05-13T08:56:48;3.47;;;3.17;;
3791;SDS011;1911;53.768;11.474;2023-05-13T08:59:14;6.53;;;3.47;;
3791;SDS011;1911;53.768;11.474;2023-05-13T09:01:40;4.83;;;3.00;;
3791;SDS011;1911;53.768;11.474;2023-05-13T09:04:05;3.67;;;3.37;;
3791;SDS011;1911;53.768;11.474;2023-05-13T09:06:34;3.67;;;3.13;;
3791;SDS011;1911;53.768;11.474;2023-05-13T09:09:00;4.97;;;3.00;;
3791;SDS011;1911;53.768;11.474;2023-05-13T09:11:27;7.60;;;3.20;;
3791;SDS011;1911;53.768;11.474;2023-05-13T09:13:56;6.20;;;3.07;;
3791;SDS011;1911;53.768;11.474;2023-05-13T09:16:28;3.23;;;2.63;;
3791;SDS011;1911;53.768;11.474;2023-05-13T09:18:59;5.40;;;3.17;;
3791;SDS011;1911;53.768;11.474;2023-05-13T09:21:29;2.90;;;2.60;;
3791;SDS011;1911;53.768;11.474;2023-05-13T09:26:32;5.03;;;2.80;;
3791;SDS011;1911;53.768;11.474;2023-05-13T09:29:43;3.33;;;2.60;;
3791;SDS011;1911;53.768;11.474;2023-05-13T09:31:45;4.93;;;2.90;;
3791;SDS011;1911;53.768;11.474;2023-05-13T09:34:23;6.30;;;2.70;;
3791;SDS011;1911;53.768;11.474;2023-05-13T09:37:03;4.50;;;2.60;;
3791;SDS011;1911;53.768;11.474;2023-05-13T09:39:39;3.17;;;1.70;;
3791;SDS011;1911;53.768;11.474;2023-05-13T09:42:12;4.17;;;2.90;;
3791;SDS011;1911;53.768;11.474;2023-05-13T09:44:45;4.70;;;2.87;;
3791;SDS011;1911;53.768;11.474;2023-05-13T09:47:15;5.63;;;3.27;;
3791;SDS011;1911;53.768;11.474;2023-05-13T09:49:42;4.20;;;2.67;;
3791;SDS011;1911;53.768;11.474;2023-05-13T09:52:08;4.33;;;3.20;;
3791;SDS011;1911;53.768;11.474;2023-05-13T09:54:35;4.83;;;2.97;;
3791;SDS011;1911;53.768;11.474;2023-05-13T09:57:02;3.37;;;3.00;;
3791;SDS011;1911;53.768;11.474;2023-05-13T09:59:32;5.93;;;2.80;;
3791;SDS011;1911;53.768;11.474;2023-05-13T10:01:59;6.37;;;2.83;;
3791;SDS011;1911;53.768;11.474;2023-05-13T10:04:28;5.80;;;2.60;;
3791;SDS011;1911;53.768;11.474;2023-05-13T10:06:54;4.40;;;2.70;;
3791;SDS011;1911;53.768;11.474;2023-05-13T10:09:22;3.97;;;2.80;;
3791;SDS011;1911;53.768;11.474;2023-05-13T10:11:48;3.60;;;2.47;;
3791;SDS011;1911;53.768;11.474;2023-05-13T10:14:14;3.93;;;2.40;;
3791;SDS011;1911;53.768;11.474;2023-05-13T10:16:40;3.17;;;2.70;;
3791;SDS011;1911;53.768;11.474;2023-05-13T10:19:07;4.17;;;2.60;;
3791;SDS011;1911;53.768;11.474;2023-05-13T10:21:33;3.90;;;2.40;;
3791;SDS011;1911;53.768;11.474;2023-05-13T10:24:00;2.87;;;2.57;;
3791;SDS011;1911;53.768;11.474;2023-05-13T10:26:27;4.40;;;2.70;;
3791;SDS011;1911;53.768;11.474;2023-05-13T10:28:53;2.97;;;2.67;;
3791;SDS011;1911;53.768;11.474;2023-05-13T10:31:19;3.00;;;2.47;;
3791;SDS011;1911;53.768;11.474;2023-05-13T10:33:45;7.80;;;3.03;;
3791;SDS011;1911;53.768;11.474;2023-05-13T10:44:38;3.27;;;2.70;;
3791;SDS011;1911;53.768;11.474;2023-05-13T10:47:04;2.83;;;2.57;;
3791;SDS011;1911;53.768;11.474;2023-05-13T10:49:33;3.50;;;2.47;;
3791;SDS011;1911;53.768;11.474;2023-05-13T10:52:06;2.80;;;2.20;;
3791;SDS011;1911;53.768;11.474;2023-05-13T10:54:37;3.67;;;3.17;;
3791;SDS011;1911;53.768;11.474;2023-05-13T10:57:06;8.70;;;3.23;;
3791;SDS011;1911;53.768;11.474;2023-05-13T10:59:32;5.50;;;2.40;;
3791;SDS011;1911;53.768;11.474;2023-05-13T11:02:00;3.53;;;2.90;;
3791;SDS011;1911;53.768;11.474;2023-05-13T11:04:27;5.60;;;2.80;;
3791;SDS011;1911;53.768;11.474;2023-05-13T11:06:53;3.87;;;2.50;;
3791;SDS011;1911;53.768;11.474;2023-05-13T11:11:53;7.23;;;2.23;;
3791;SDS011;1911;53.768;11.474;2023-05-13T11:14:21;2.47;;;2.13;;
3791;SDS011;1911;53.768;11.474;2023-05-13T11:19:25;5.20;;;2.87;;
3791;SDS011;1911;53.768;11.474;2023-05-13T11:21:53;3.33;;;2.33;;
3791;SDS011;1911;53.768;11.474;2023-05-13T11:24:28;5.10;;;3.00;;
3791;SDS011;1911;53.768;11.474;2023-05-13T11:26:54;4.00;;;2.50;;
3791;SDS011;1911;53.768;11.474;2023-05-13T11:29:31;2.67;;;2.00;;
3791;SDS011;1911;53.768;11.474;2023-05-13T11:32:04;3.67;;;2.37;;
3791;SDS011;1911;53.768;11.474;2023-05-13T11:34:31;3.10;;;2.57;;
3791;SDS011;1911;53.768;11.474;2023-05-13T11:39:33;2.83;;;2.50;;
3791;SDS011;1911;53.768;11.474;2023-05-13T11:41:59;4.70;;;2.37;;
3791;SDS011;1911;53.768;11.474;2023-05-13T11:44:26;4.43;;;2.50;;
3791;SDS011;1911;53.768;11.474;2023-05-13T11:54:43;6.67;;;2.90;;
3791;SDS011;1911;53.768;11.474;2023-05-13T11:59:58;5.90;;;2.90;;
3791;SDS011;1911;53.768;11.474;2023-05-13T12:02:27;4.00;;;2.57;;
3791;SDS011;1911;53.768;11.474;2023-05-13T12:04:55;6.20;;;2.57;;
3791;SDS011;1911;53.768;11.474;2023-05-13T12:07:24;3.17;;;2.60;;
3791;SDS011;1911;53.768;11.474;2023-05-13T12:09:51;3.70;;;2.60;;
3791;SDS011;1911;53.768;11.474;2023-05-13T12:12:19;3.97;;;2.83;;
3791;SDS011;1911;53.768;11.474;2023-05-13T12:14:45;4.23;;;2.47;;
3791;SDS011;1911;53.768;11.474;2023-05-13T12:17:14;3.73;;;3.10;;
3791;SDS011;1911;53.768;11.474;2023-05-13T12:20:26;3.00;;;2.43;;
3791;SDS011;1911;53.768;11.474;2023-05-13T12:28:04;3.80;;;2.83;;
3791;SDS011;1911;53.768;11.474;2023-05-13T12:30:33;3.50;;;2.73;;
3791;SDS011;1911;53.768;11.474;2023-05-13T12:32:59;4.03;;;3.03;;
3791;SDS011;1911;53.768;11.474;2023-05-13T12:35:25;6.43;;;4.07;;
3791;SDS011;1911;53.768;11.474;2023-05-13T12:38:03;3.37;;;2.70;;
3791;SDS011;1911;53.768;11.474;2023-05-13T12:40:29;6.17;;;2.87;;
3791;SDS011;1911;53.768;11.474;2023-05-13T12:42:56;6.67;;;2.93;;
3791;SDS011;1911;53.768;11.474;2023-05-13T12:45:29;3.80;;;3.03;;
3791;SDS011;1911;53.768;11.474;2023-05-13T12:47:56;3.13;;;2.70;;
3791;SDS011;1911;53.768;11.474;2023-05-13T12:50:22;3.13;;;2.27;;
3791;SDS011;1911;53.768;11.474;2023-05-13T12:52:49;3.90;;;2.83;;
3791;SDS011;1911;53.768;11.474;2023-05-13T12:55:15;5.57;;;2.70;;
3791;SDS011;1911;53.768;11.474;2023-05-13T12:57:41;6.20;;;2.90;;
3791;SDS011;1911;53.768;11.474;2023-05-13T13:00:07;7.73;;;2.80;;
3791;SDS011;1911;53.768;11.474;2023-05-13T13:02:39;3.47;;;2.90;;
3791;SDS011;1911;53.768;11.474;2023-05-13T13:05:05;3.33;;;2.77;;
3791;SDS011;1911;53.768;11.474;2023-05-13T13:07:31;5.23;;;2.60;;
3791;SDS011;1911;53.768;11.474;2023-05-13T13:09:57;3.60;;;2.77;;
3791;SDS011;1911;53.768;11.474;2023-05-13T13:12:22;5.03;;;2.70;;
3791;SDS011;1911;53.768;11.474;2023-05-13T13:14:48;4.77;;;2.83;;
3791;SDS011;1911;53.768;11.474;2023-05-13T13:17:13;5.43;;;2.73;;
3791;SDS011;1911;53.768;11.474;2023-05-13T13:19:39;6.97;;;2.40;;
3791;SDS011;1911;53.768;11.474;2023-05-13T13:22:05;3.17;;;2.67;;
3791;SDS011;1911;53.768;11.474;2023-05-13T13:24:30;3.77;;;2.50;;
3791;SDS011;1911;53.768;11.474;2023-05-13T13:26:56;3.27;;;2.50;;
3791;SDS011;1911;53.768;11.474;2023-05-13T13:29:22;4.27;;;2.40;;
3791;SDS011;1911;53.768;11.474;2023-05-13T13:31:47;5.23;;;2.67;;
3791;SDS011;1911;53.768;11.474;2023-05-13T13:34:13;5.00;;;2.87;;
3791;SDS011;1911;53.768;11.474;2023-05-13T13:36:39;6.60;;;3.07;;
3791;SDS011;1911;53.768;11.474;2023-05-13T13:39:04;3.03;;;2.50;;
3791;SDS011;1911;53.768;11.474;2023-05-13T13:41:30;3.13;;;2.40;;
3791;SDS011;1911;53.768;11.474;2023-05-13T13:43:56;4.27;;;2.77;;
3791;SDS011;1911;53.768;11.474;2023-05-13T13:46:21;3.50;;;3.20;;
3791;SDS011;1911;53.768;11.474;2023-05-13T13:48:47;5.10;;;3.00;;
3791;SDS011;1911;53.768;11.474;2023-05-13T13:51:12;7.33;;;4.13;;
3791;SDS011;1911;53.768;11.474;2023-05-13T13:53:38;3.47;;;2.47;;
3791;SDS011;1911;53.768;11.474;2023-05-13T13:56:03;7.67;;;2.47;;
3791;SDS011;1911;53.768;11.474;2023-05-13T13:58:30;3.10;;;2.80;;
3791;SDS011;1911;53.768;11.474;2023-05-13T14:00:56;3.33;;;2.80;;
3791;SDS011;1911;53.768;11.474;2023-05-13T14:03:21;9.27;;;2.70;;
3791;SDS011;1911;53.768;11.474;2023-05-13T14:05:47;4.00;;;3.17;;
3791;SDS011;1911;53.768;11.474;2023-05-13T14:08:12;7.53;;;3.07;;
3791;SDS011;1911;53.768;11.474;2023-05-13T14:10:38;4.07;;;2.83;;
3791;SDS011;1911;53.768;11.474;2023-05-13T14:13:04;4.73;;;2.40;;
3791;SDS011;1911;53.768;11.474;2023-05-13T14:15:30;3.43;;;2.60;;
3791;SDS011;1911;53.768;11.474;2023-05-13T14:17:56;6.27;;;2.80;;
3791;SDS011;1911;53.768;11.474;2023-05-13T14:20:22;7.10;;;3.03;;
3791;SDS011;1911;53.768;11.474;2023-05-13T14:22:48;4.23;;;2.37;;
3791;SDS011;1911;53.768;11.474;2023-05-13T14:25:14;6.47;;;3.10;;
3791;SDS011;1911;53.768;11.474;2023-05-13T14:27:40;5.90;;;2.97;;
3791;SDS011;1911;53.768;11.474;2023-05-13T14:30:06;3.63;;;2.77;;
3791;SDS011;1911;53.768;11.474;2023-05-13T14:32:32;3.23;;;2.87;;
3791;SDS011;1911;53.768;11.474;2023-05-13T14:34:58;6.00;;;2.53;;
3791;SDS011;1911;53.768;11.474;2023-05-13T14:37:24;8.90;;;3.03;;
3791;SDS011;1911;53.768;11.474;2023-05-13T14:39:49;3.50;;;3.00;;
3791;SDS011;1911;53.768;11.474;2023-05-13T14:42:15;4.57;;;2.90;;
3791;SDS011;1911;53.768;11.474;2023-05-13T14:44:41;4.53;;;3.03;;
3791;SDS011;1911;53.768;11.474;2023-05-13T14:47:07;7.60;;;2.33;;
3791;SDS011;1911;53.768;11.474;2023-05-13T14:49:33;3.20;;;2.87;;
3791;SDS011;1911;53.768;11.474;2023-05-13T14:51:58;5.70;;;2.80;;
3791;SDS011;1911;53.768;11.474;2023-05-13T14:54:24;3.50;;;2.90;;
3791;SDS011;1911;53.768;11.474;2023-05-13T14:56:50;5.20;;;3.20;;
3791;SDS011;1911;53.768;11.474;2023-05-13T14:59:16;3.90;;;3.00;;
3791;SDS011;1911;53.768;11.474;2023-05-13T15:01:42;3.27;;;2.97;;
3791;SDS011;1911;53.768;11.474;2023-05-13T15:04:07;4.63;;;2.80;;
3791;SDS011;1911;53.768;11.474;2023-05-13T15:06:36;5.10;;;3.00;;
3791;SDS011;1911;53.768;11.474;2023-05-13T15:09:02;8.57;;;3.90;;
3791;SDS011;1911;53.768;11.474;2023-05-13T15:11:29;4.70;;;2.73;;
3791;SDS011;1911;53.768;11.474;2023-05-13T15:13:55;4.23;;;2.87;;
3791;SDS011;1911;53.768;11.474;2023-05-13T15:16:20;5.90;;;3.10;;
3791;SDS011;1911;53.768;11.474;2023-05-13T15:18:46;4.33;;;2.60;;
3791;SDS011;1911;53.768;11.474;2023-05-13T15:21:12;3.50;;;2.80;;
3791;SDS011;1911;53.768;11.474;2023-05-13T15:23:37;3.80;;;2.83;;
3791;SDS011;1911;53.768;11.474;2023-05-13T15:26:03;7.17;;;3.00;;
3791;SDS011;1911;53.768;11.474;2023-05-13T15:28:28;3.03;;;2.70;;
3791;SDS011;1911;53.768;11.474;2023-05-13T15:30:54;4.00;;;2.90;;
3791;SDS011;1911;53.768;11.474;2023-05-13T15:33:20;3.50;;;2.93;;
3791;SDS011;1911;53.768;11.474;2023-05-13T15:35:45;4.43;;;3.00;;
3791;SDS011;1911;53.768;11.474;2023-05-13T15:38:11;9.70;;;4.60;;
3791;SDS011;1911;53.768;11.474;2023-05-13T15:40:37;4.10;;;2.83;;